sensor_id;sensor_type;location;lat;lon;timestamp;temperature;humidity
7163;DHT22;3623;47.098;15.446;2023-04-03T00:02:09;4.50;99.90
7163;DHT22;3623;47.098;15.446;2023-04-03T00:04:36;4.70;99.90
7163;DHT22;3623;47.098;15.446;2023-04-03T00:07:03;4.60;99.90
7163;DHT22;3623;47.098;15.446;2023-04-03T00:09:30;4.90;99.90
7163;DHT22;3623;47.098;15.446;2023-04-03T00:11:57;4.60;99.90
7163;DHT22;3623;47.098;15.446;2023-04-03T00:14:26;4.40;99.90
7163;DHT22;3623;47.098;15.446;2023-04-03T00:16:53;4.40;99.90
7163;DHT22;3623;47.098;15.446;2023-04-03T00:19:20;4.40;99.90
7163;DHT22;3623;47.098;15.446;2023-04-03T00:21:47;4.50;99.90
7163;DHT22;3623;47.098;15.446;2023-04-03T00:24:14;4.70;99.90
7163;DHT22;3623;47.098;15.446;2023-04-03T00:26:41;4.50;99.90
7163;DHT22;3623;47.098;15.446;2023-04-03T00:29:08;4.50;99.90
7163;DHT22;3623;47.098;15.446;2023-04-03T00:31:36;3.70;99.90
7163;DHT22;3623;47.098;15.446;2023-04-03T00:34:04;4.60;99.90
7163;DHT22;3623;47.098;15.446;2023-04-03T00:36:31;4.50;99.90
7163;DHT22;3623;47.098;15.446;2023-04-03T00:38:58;4.40;99.90
7163;DHT22;3623;47.098;15.446;2023-04-03T00:41:25;4.30;99.90
7163;DHT22;3623;47.098;15.446;2023-04-03T00:43:52;4.40;99.90
7163;DHT22;3623;47.098;15.446;2023-04-03T00:46:19;4.40;99.90
7163;DHT22;3623;47.098;15.446;2023-04-03T00:48:48;4.30;99.90
7163;DHT22;3623;47.098;15.446;2023-04-03T00:51:19;4.30;99.90
7163;DHT22;3623;47.098;15.446;2023-04-03T00:53:51;4.30;99.90
7163;DHT22;3623;47.098;15.446;2023-04-03T00:56:21;4.20;99.90
7163;DHT22;3623;47.098;15.446;2023-04-03T00:58:53;4.20;99.90
7163;DHT22;3623;47.098;15.446;2023-04-03T01:01:23;4.20;99.90
7163;DHT22;3623;47.098;15.446;2023-04-03T01:03:52;4.20;99.90
7163;DHT22;3623;47.098;15.446;2023-04-03T01:06:21;4.40;99.90
7163;DHT22;3623;47.098;15.446;2023-04-03T01:08:50;4.10;99.90
7163;DHT22;3623;47.098;15.446;2023-04-03T01:11:18;4.20;99.90
7163;DHT22;3623;47.098;15.446;2023-04-03T01:13:46;4.20;99.90
7163;DHT22;3623;47.098;15.446;2023-04-03T01:16:14;4.30;99.90
7163;DHT22;3623;47.098;15.446;2023-04-03T01:18:42;4.30;99.90
7163;DHT22;3623;47.098;15.446;2023-04-03T01:21:44;4.30;99.90
7163;DHT22;3623;47.098;15.446;2023-04-03T01:24:25;4.60;99.90
7163;DHT22;3623;47.098;15.446;2023-04-03T01:26:54;4.70;99.90
7163;DHT22;3623;47.098;15.446;2023-04-03T01:29:21;4.50;99.90
7163;DHT22;3623;47.098;15.446;2023-04-03T01:31:51;4.40;99.90
7163;DHT22;3623;47.098;15.446;2023-04-03T01:34:18;4.30;99.90
7163;DHT22;3623;47.098;15.446;2023-04-03T01:36:46;4.30;99.90
7163;DHT22;3623;47.098;15.446;2023-04-03T01:39:13;4.30;99.90
7163;DHT22;3623;47.098;15.446;2023-04-03T01:41:40;4.20;99.90
7163;DHT22;3623;47.098;15.446;2023-04-03T01:44:07;4.40;99.90
7163;DHT22;3623;47.098;15.446;2023-04-03T01:46:35;4.10;99.90
7163;DHT22;3623;47.098;15.446;2023-04-03T01:49:04;4.20;99.90
7163;DHT22;3623;47.098;15.446;2023-04-03T01:51:32;4.20;99.90
7163;DHT22;3623;47.098;15.446;2023-04-03T01:53:59;4.10;99.90
7163;DHT22;3623;47.098;15.446;2023-04-03T01:56:26;4.20;99.90
7163;DHT22;3623;47.098;15.446;2023-04-03T01:58:53;4.10;99.90
7163;DHT22;3623;47.098;15.446;2023-04-03T02:01:20;4.60;99.90
7163;DHT22;3623;47.098;15.446;2023-04-03T02:03:47;4.10;99.90
7163;DHT22;3623;47.098;15.446;2023-04-03T02:06:16;4.10;99.90
7163;DHT22;3623;47.098;15.446;2023-04-03T02:08:43;4.10;99.90
7163;DHT22;3623;47.098;15.446;2023-04-03T02:11:10;4.20;99.90
7163;DHT22;3623;47.098;15.446;2023-04-03T02:13:37;3.80;99.90
7163;DHT22;3623;47.098;15.446;2023-04-03T02:16:08;3.80;99.90
7163;DHT22;3623;47.098;15.446;2023-04-03T02:18:35;4.00;99.90
7163;DHT22;3623;47.098;15.446;2023-04-03T02:21:03;4.30;99.90
7163;DHT22;3623;47.098;15.446;2023-04-03T02:23:31;4.00;99.90
7163;DHT22;3623;47.098;15.446;2023-04-03T02:26:06;4.00;99.90
7163;DHT22;3623;47.098;15.446;2023-04-03T02:28:34;4.10;99.90
7163;DHT22;3623;47.098;15.446;2023-04-03T02:31:01;5.10;99.90
7163;DHT22;3623;47.098;15.446;2023-04-03T02:33:28;4.10;99.90
7163;DHT22;3623;47.098;15.446;2023-04-03T02:35:56;4.00;99.90
7163;DHT22;3623;47.098;15.446;2023-04-03T02:38:24;4.00;99.90
7163;DHT22;3623;47.098;15.446;2023-04-03T02:40:52;4.00;99.90
7163;DHT22;3623;47.098;15.446;2023-04-03T02:43:19;4.40;99.90
7163;DHT22;3623;47.098;15.446;2023-04-03T02:45:46;4.00;99.90
7163;DHT22;3623;47.098;15.446;2023-04-03T02:48:13;4.00;99.90
7163;DHT22;3623;47.098;15.446;2023-04-03T02:50:42;4.00;99.90
7163;DHT22;3623;47.098;15.446;2023-04-03T02:53:09;4.00;99.90
7163;DHT22;3623;47.098;15.446;2023-04-03T02:55:36;4.00;99.90
7163;DHT22;3623;47.098;15.446;2023-04-03T02:58:06;3.60;99.90
7163;DHT22;3623;47.098;15.446;2023-04-03T03:00:33;4.00;99.90
7163;DHT22;3623;47.098;15.446;2023-04-03T03:03:00;4.00;99.90
7163;DHT22;3623;47.098;15.446;2023-04-03T03:05:27;3.60;99.90
7163;DHT22;3623;47.098;15.446;2023-04-03T03:07:54;4.10;99.90
7163;DHT22;3623;47.098;15.446;2023-04-03T03:10:22;4.10;99.90
7163;DHT22;3623;47.098;15.446;2023-04-03T03:12:50;4.20;99.90
7163;DHT22;3623;47.098;15.446;2023-04-03T03:15:18;4.10;99.90
7163;DHT22;3623;47.098;15.446;2023-04-03T03:17:45;4.00;99.90
7163;DHT22;3623;47.098;15.446;2023-04-03T03:20:13;4.20;99.90
7163;DHT22;3623;47.098;15.446;2023-04-03T03:22:41;4.20;99.90
7163;DHT22;3623;47.098;15.446;2023-04-03T03:25:08;4.20;99.90
7163;DHT22;3623;47.098;15.446;2023-04-03T03:27:36;4.00;99.90
7163;DHT22;3623;47.098;15.446;2023-04-03T03:30:04;4.10;99.90
7163;DHT22;3623;47.098;15.446;2023-04-03T03:32:32;4.10;99.90
7163;DHT22;3623;47.098;15.446;2023-04-03T03:35:00;4.10;99.90
7163;DHT22;3623;47.098;15.446;2023-04-03T03:37:27;4.00;99.90
7163;DHT22;3623;47.098;15.446;2023-04-03T03:39:54;4.10;99.90
7163;DHT22;3623;47.098;15.446;2023-04-03T03:42:21;4.60;99.90
7163;DHT22;3623;47.098;15.446;2023-04-03T03:44:48;4.20;99.90
7163;DHT22;3623;47.098;15.446;2023-04-03T03:47:15;4.20;99.90
7163;DHT22;3623;47.098;15.446;2023-04-03T03:49:43;4.40;99.90
7163;DHT22;3623;47.098;15.446;2023-04-03T03:52:10;4.20;99.90
7163;DHT22;3623;47.098;15.446;2023-04-03T03:54:37;4.40;99.90
7163;DHT22;3623;47.098;15.446;2023-04-03T03:57:05;4.30;99.90
7163;DHT22;3623;47.098;15.446;2023-04-03T03:59:32;4.30;99.90
7163;DHT22;3623;47.098;15.446;2023-04-03T04:01:59;4.30;99.90
7163;DHT22;3623;47.098;15.446;2023-04-03T04:04:26;4.30;99.90
7163;DHT22;3623;47.098;15.446;2023-04-03T04:06:55;4.40;99.90
7163;DHT22;3623;47.098;15.446;2023-04-03T04:09:22;4.40;99.90
7163;DHT22;3623;47.098;15.446;2023-04-03T04:11:49;4.30;99.90
7163;DHT22;3623;47.098;15.446;2023-04-03T04:14:16;4.40;99.90
7163;DHT22;3623;47.098;15.446;2023-04-03T04:16:43;4.60;99.90
7163;DHT22;3623;47.098;15.446;2023-04-03T04:19:10;4.50;99.90
7163;DHT22;3623;47.098;15.446;2023-04-03T04:21:37;4.50;99.90
7163;DHT22;3623;47.098;15.446;2023-04-03T04:24:06;4.40;99.90
7163;DHT22;3623;47.098;15.446;2023-04-03T04:26:34;4.40;99.90
7163;DHT22;3623;47.098;15.446;2023-04-03T04:29:01;4.40;99.90
7163;DHT22;3623;47.098;15.446;2023-04-03T04:31:28;4.40;99.90
7163;DHT22;3623;47.098;15.446;2023-04-03T04:33:55;4.40;99.90
7163;DHT22;3623;47.098;15.446;2023-04-03T04:36:22;4.60;99.90
7163;DHT22;3623;47.098;15.446;2023-04-03T04:38:49;4.50;99.90
7163;DHT22;3623;47.098;15.446;2023-04-03T04:41:20;4.50;99.90
7163;DHT22;3623;47.098;15.446;2023-04-03T04:43:48;4.50;99.90
7163;DHT22;3623;47.098;15.446;2023-04-03T04:46:15;4.40;99.90
7163;DHT22;3623;47.098;15.446;2023-04-03T04:48:42;4.30;99.90
7163;DHT22;3623;47.098;15.446;2023-04-03T04:51:10;4.30;99.90
7163;DHT22;3623;47.098;15.446;2023-04-03T04:53:37;4.50;99.90
7163;DHT22;3623;47.098;15.446;2023-04-03T04:56:04;5.10;99.90
7163;DHT22;3623;47.098;15.446;2023-04-03T04:58:33;4.30;99.90
7163;DHT22;3623;47.098;15.446;2023-04-03T05:01:01;4.40;99.90
7163;DHT22;3623;47.098;15.446;2023-04-03T05:03:28;4.60;99.90
7163;DHT22;3623;47.098;15.446;2023-04-03T05:05:55;4.50;99.90
7163;DHT22;3623;47.098;15.446;2023-04-03T05:08:22;4.50;99.90
7163;DHT22;3623;47.098;15.446;2023-04-03T05:10:49;4.50;99.90
7163;DHT22;3623;47.098;15.446;2023-04-03T05:13:17;4.50;99.90
7163;DHT22;3623;47.098;15.446;2023-04-03T05:15:45;4.50;99.90
7163;DHT22;3623;47.098;15.446;2023-04-03T05:18:13;4.60;99.90
7163;DHT22;3623;47.098;15.446;2023-04-03T05:20:40;4.80;99.90
7163;DHT22;3623;47.098;15.446;2023-04-03T05:23:09;4.80;99.90
7163;DHT22;3623;47.098;15.446;2023-04-03T05:25:37;4.60;99.90
7163;DHT22;3623;47.098;15.446;2023-04-03T05:28:05;4.60;99.90
7163;DHT22;3623;47.098;15.446;2023-04-03T05:30:32;4.60;99.90
7163;DHT22;3623;47.098;15.446;2023-04-03T05:33:00;4.40;99.90
7163;DHT22;3623;47.098;15.446;2023-04-03T05:35:27;4.70;99.90
7163;DHT22;3623;47.098;15.446;2023-04-03T05:37:55;4.70;99.90
7163;DHT22;3623;47.098;15.446;2023-04-03T05:40:22;4.10;99.90
7163;DHT22;3623;47.098;15.446;2023-04-03T05:42:49;4.70;99.90
7163;DHT22;3623;47.098;15.446;2023-04-03T05:45:16;4.70;99.90
7163;DHT22;3623;47.098;15.446;2023-04-03T05:47:43;4.80;99.90
7163;DHT22;3623;47.098;15.446;2023-04-03T05:50:12;4.60;99.90
7163;DHT22;3623;47.098;15.446;2023-04-03T05:52:42;4.80;99.90
7163;DHT22;3623;47.098;15.446;2023-04-03T05:55:11;4.90;99.90
7163;DHT22;3623;47.098;15.446;2023-04-03T05:57:38;4.80;99.90
7163;DHT22;3623;47.098;15.446;2023-04-03T06:00:06;5.20;99.90
7163;DHT22;3623;47.098;15.446;2023-04-03T06:02:35;5.00;99.90
7163;DHT22;3623;47.098;15.446;2023-04-03T06:05:02;5.00;99.90
7163;DHT22;3623;47.098;15.446;2023-04-03T06:07:31;5.10;99.90
7163;DHT22;3623;47.098;15.446;2023-04-03T06:09:58;5.20;99.90
7163;DHT22;3623;47.098;15.446;2023-04-03T06:12:26;5.20;99.90
7163;DHT22;3623;47.098;15.446;2023-04-03T06:14:54;5.20;99.90
7163;DHT22;3623;47.098;15.446;2023-04-03T06:17:21;5.30;99.90
7163;DHT22;3623;47.098;15.446;2023-04-03T06:19:49;5.20;99.90
7163;DHT22;3623;47.098;15.446;2023-04-03T06:22:16;5.40;99.90
7163;DHT22;3623;47.098;15.446;2023-04-03T06:24:45;5.20;99.90
7163;DHT22;3623;47.098;15.446;2023-04-03T06:27:12;5.30;99.90
7163;DHT22;3623;47.098;15.446;2023-04-03T06:29:39;5.60;99.90
7163;DHT22;3623;47.098;15.446;2023-04-03T06:32:06;5.40;99.90
7163;DHT22;3623;47.098;15.446;2023-04-03T06:34:33;5.60;99.90
7163;DHT22;3623;47.098;15.446;2023-04-03T06:37:01;5.50;99.90
7163;DHT22;3623;47.098;15.446;2023-04-03T06:39:28;5.50;99.90
7163;DHT22;3623;47.098;15.446;2023-04-03T06:41:56;5.80;99.90
7163;DHT22;3623;47.098;15.446;2023-04-03T06:44:23;5.80;99.90
7163;DHT22;3623;47.098;15.446;2023-04-03T06:46:51;5.80;99.90
7163;DHT22;3623;47.098;15.446;2023-04-03T06:49:19;5.40;99.90
7163;DHT22;3623;47.098;15.446;2023-04-03T06:51:47;5.60;99.90
7163;DHT22;3623;47.098;15.446;2023-04-03T06:54:14;5.30;99.90
7163;DHT22;3623;47.098;15.446;2023-04-03T06:56:41;5.40;99.90
7163;DHT22;3623;47.098;15.446;2023-04-03T06:59:11;5.60;99.90
7163;DHT22;3623;47.098;15.446;2023-04-03T07:01:38;5.40;99.90
7163;DHT22;3623;47.098;15.446;2023-04-03T07:04:06;5.30;99.90
7163;DHT22;3623;47.098;15.446;2023-04-03T07:06:33;5.40;99.90
7163;DHT22;3623;47.098;15.446;2023-04-03T07:09:01;5.50;99.90
7163;DHT22;3623;47.098;15.446;2023-04-03T07:11:28;5.30;99.90
7163;DHT22;3623;47.098;15.446;2023-04-03T07:13:55;5.40;99.90
7163;DHT22;3623;47.098;15.446;2023-04-03T07:16:23;5.30;99.90
7163;DHT22;3623;47.098;15.446;2023-04-03T07:18:51;5.40;99.90
7163;DHT22;3623;47.098;15.446;2023-04-03T07:21:18;5.40;99.90
7163;DHT22;3623;47.098;15.446;2023-04-03T07:23:45;5.40;99.90
7163;DHT22;3623;47.098;15.446;2023-04-03T07:26:12;5.40;99.90
7163;DHT22;3623;47.098;15.446;2023-04-03T07:28:39;5.50;99.90
7163;DHT22;3623;47.098;15.446;2023-04-03T07:31:08;5.40;99.90
7163;DHT22;3623;47.098;15.446;2023-04-03T07:33:39;5.50;99.90
7163;DHT22;3623;47.098;15.446;2023-04-03T07:36:07;5.50;99.90
7163;DHT22;3623;47.098;15.446;2023-04-03T07:38:35;5.50;99.90
7163;DHT22;3623;47.098;15.446;2023-04-03T07:41:03;5.90;99.90
7163;DHT22;3623;47.098;15.446;2023-04-03T07:43:31;5.90;99.90
7163;DHT22;3623;47.098;15.446;2023-04-03T07:46:00;6.00;99.90
7163;DHT22;3623;47.098;15.446;2023-04-03T07:48:27;6.10;99.90
7163;DHT22;3623;47.098;15.446;2023-04-03T07:50:59;6.10;99.90
7163;DHT22;3623;47.098;15.446;2023-04-03T07:53:26;6.00;99.90
7163;DHT22;3623;47.098;15.446;2023-04-03T07:55:53;6.00;99.90
7163;DHT22;3623;47.098;15.446;2023-04-03T07:58:22;5.90;99.90
7163;DHT22;3623;47.098;15.446;2023-04-03T08:00:50;5.70;99.90
7163;DHT22;3623;47.098;15.446;2023-04-03T08:03:17;6.00;99.90
7163;DHT22;3623;47.098;15.446;2023-04-03T08:05:46;6.20;99.90
7163;DHT22;3623;47.098;15.446;2023-04-03T08:08:17;6.40;99.90
7163;DHT22;3623;47.098;15.446;2023-04-03T08:10:48;6.40;99.90
7163;DHT22;3623;47.098;15.446;2023-04-03T08:13:15;6.30;99.90
7163;DHT22;3623;47.098;15.446;2023-04-03T08:15:42;6.20;99.90
7163;DHT22;3623;47.098;15.446;2023-04-03T08:18:10;6.10;99.90
7163;DHT22;3623;47.098;15.446;2023-04-03T08:20:38;6.30;99.90
7163;DHT22;3623;47.098;15.446;2023-04-03T08:23:06;6.60;99.90
7163;DHT22;3623;47.098;15.446;2023-04-03T08:25:38;6.70;99.90
7163;DHT22;3623;47.098;15.446;2023-04-03T08:28:05;7.00;99.90
7163;DHT22;3623;47.098;15.446;2023-04-03T08:30:33;6.90;99.90
7163;DHT22;3623;47.098;15.446;2023-04-03T08:33:00;6.60;99.90
7163;DHT22;3623;47.098;15.446;2023-04-03T08:35:28;6.70;99.90
7163;DHT22;3623;47.098;15.446;2023-04-03T08:37:55;6.60;99.90
7163;DHT22;3623;47.098;15.446;2023-04-03T08:40:22;6.80;99.90
7163;DHT22;3623;47.098;15.446;2023-04-03T08:43:03;6.60;99.90
7163;DHT22;3623;47.098;15.446;2023-04-03T08:45:43;6.70;99.90
7163;DHT22;3623;47.098;15.446;2023-04-03T08:48:15;6.80;99.90
7163;DHT22;3623;47.098;15.446;2023-04-03T08:50:47;6.90;99.90
7163;DHT22;3623;47.098;15.446;2023-04-03T08:53:18;7.00;99.90
7163;DHT22;3623;47.098;15.446;2023-04-03T08:55:46;6.90;99.90
7163;DHT22;3623;47.098;15.446;2023-04-03T08:58:18;6.80;99.90
7163;DHT22;3623;47.098;15.446;2023-04-03T09:00:48;7.00;99.90
7163;DHT22;3623;47.098;15.446;2023-04-03T09:03:18;7.10;99.90
7163;DHT22;3623;47.098;15.446;2023-04-03T09:05:49;6.90;99.80
7163;DHT22;3623;47.098;15.446;2023-04-03T09:08:25;6.90;99.80
7163;DHT22;3623;47.098;15.446;2023-04-03T09:11:00;6.80;99.30
7163;DHT22;3623;47.098;15.446;2023-04-03T09:13:37;6.60;99.90
7163;DHT22;3623;47.098;15.446;2023-04-03T09:16:20;6.70;99.60
7163;DHT22;3623;47.098;15.446;2023-04-03T09:18:53;6.70;99.90
7163;DHT22;3623;47.098;15.446;2023-04-03T09:21:25;6.70;99.70
7163;DHT22;3623;47.098;15.446;2023-04-03T09:23:59;6.70;99.20
7163;DHT22;3623;47.098;15.446;2023-04-03T09:26:31;6.70;99.60
7163;DHT22;3623;47.098;15.446;2023-04-03T09:29:05;6.70;99.10
7163;DHT22;3623;47.098;15.446;2023-04-03T09:31:36;6.60;99.50
7163;DHT22;3623;47.098;15.446;2023-04-03T09:34:13;6.70;99.70
7163;DHT22;3623;47.098;15.446;2023-04-03T09:36:44;6.90;99.80
7163;DHT22;3623;47.098;15.446;2023-04-03T09:39:13;6.80;99.50
7163;DHT22;3623;47.098;15.446;2023-04-03T09:41:42;6.90;99.30
7163;DHT22;3623;47.098;15.446;2023-04-03T09:44:23;6.90;99.20
7163;DHT22;3623;47.098;15.446;2023-04-03T09:46:50;6.90;99.20
7163;DHT22;3623;47.098;15.446;2023-04-03T09:49:18;7.00;99.90
7163;DHT22;3623;47.098;15.446;2023-04-03T09:51:45;7.10;99.50
7163;DHT22;3623;47.098;15.446;2023-04-03T09:54:33;7.20;99.70
7163;DHT22;3623;47.098;15.446;2023-04-03T09:57:06;7.30;99.60
7163;DHT22;3623;47.098;15.446;2023-04-03T09:59:43;7.30;99.00
7163;DHT22;3623;47.098;15.446;2023-04-03T10:05:23;7.40;99.40
7163;DHT22;3623;47.098;15.446;2023-04-03T10:07:52;7.80;99.90
7163;DHT22;3623;47.098;15.446;2023-04-03T10:10:33;8.40;99.90
7163;DHT22;3623;47.098;15.446;2023-04-03T10:13:06;8.80;99.00
7163;DHT22;3623;47.098;15.446;2023-04-03T10:15:39;8.40;98.50
7163;DHT22;3623;47.098;15.446;2023-04-03T10:18:19;8.50;99.10
7163;DHT22;3623;47.098;15.446;2023-04-03T10:20:50;8.50;99.10
7163;DHT22;3623;47.098;15.446;2023-04-03T10:23:21;8.40;99.10
7163;DHT22;3623;47.098;15.446;2023-04-03T10:26:00;8.40;99.00
7163;DHT22;3623;47.098;15.446;2023-04-03T10:28:35;8.10;98.90
7163;DHT22;3623;47.098;15.446;2023-04-03T10:31:12;8.10;99.50
7163;DHT22;3623;47.098;15.446;2023-04-03T10:33:49;8.00;99.70
7163;DHT22;3623;47.098;15.446;2023-04-03T10:36:26;8.10;99.90
7163;DHT22;3623;47.098;15.446;2023-04-03T10:39:02;7.80;99.70
7163;DHT22;3623;47.098;15.446;2023-04-03T10:41:41;7.90;99.90
7163;DHT22;3623;47.098;15.446;2023-04-03T10:44:16;7.90;99.90
7163;DHT22;3623;47.098;15.446;2023-04-03T10:46:49;7.80;99.90
7163;DHT22;3623;47.098;15.446;2023-04-03T10:49:30;7.90;99.90
7163;DHT22;3623;47.098;15.446;2023-04-03T10:52:04;8.00;99.90
7163;DHT22;3623;47.098;15.446;2023-04-03T10:54:35;7.80;99.90
7163;DHT22;3623;47.098;15.446;2023-04-03T10:57:08;7.70;99.90
7163;DHT22;3623;47.098;15.446;2023-04-03T10:59:37;7.70;99.90
7163;DHT22;3623;47.098;15.446;2023-04-03T11:02:13;7.80;99.90
7163;DHT22;3623;47.098;15.446;2023-04-03T11:04:48;7.90;99.70
7163;DHT22;3623;47.098;15.446;2023-04-03T11:07:19;7.80;99.50
7163;DHT22;3623;47.098;15.446;2023-04-03T11:09:50;7.70;99.10
7163;DHT22;3623;47.098;15.446;2023-04-03T11:12:24;7.80;99.50
7163;DHT22;3623;47.098;15.446;2023-04-03T11:14:55;7.70;98.50
7163;DHT22;3623;47.098;15.446;2023-04-03T11:17:28;7.80;98.20
7163;DHT22;3623;47.098;15.446;2023-04-03T11:20:02;7.80;98.20
7163;DHT22;3623;47.098;15.446;2023-04-03T11:22:34;7.80;98.40
7163;DHT22;3623;47.098;15.446;2023-04-03T11:25:08;7.70;98.30
7163;DHT22;3623;47.098;15.446;2023-04-03T11:27:43;8.20;98.90
7163;DHT22;3623;47.098;15.446;2023-04-03T11:30:17;8.70;98.80
7163;DHT22;3623;47.098;15.446;2023-04-03T11:33:00;8.60;98.00
7163;DHT22;3623;47.098;15.446;2023-04-03T11:35:30;9.10;97.50
7163;DHT22;3623;47.098;15.446;2023-04-03T11:38:00;8.90;96.60
7163;DHT22;3623;47.098;15.446;2023-04-03T11:40:29;8.70;97.40
7163;DHT22;3623;47.098;15.446;2023-04-03T11:43:05;8.90;98.00
7163;DHT22;3623;47.098;15.446;2023-04-03T11:45:38;9.50;98.30
7163;DHT22;3623;47.098;15.446;2023-04-03T11:48:43;9.60;97.50
7163;DHT22;3623;47.098;15.446;2023-04-03T11:51:41;9.70;98.10
7163;DHT22;3623;47.098;15.446;2023-04-03T11:57:46;10.00;96.60
7163;DHT22;3623;47.098;15.446;2023-04-03T12:00:48;12.20;97.70
7163;DHT22;3623;47.098;15.446;2023-04-03T12:06:53;12.70;96.10
7163;DHT22;3623;47.098;15.446;2023-04-03T12:09:54;12.40;95.60
7163;DHT22;3623;47.098;15.446;2023-04-03T12:12:29;14.20;95.70
7163;DHT22;3623;47.098;15.446;2023-04-03T12:15:16;14.90;92.90
7163;DHT22;3623;47.098;15.446;2023-04-03T12:17:44;14.40;93.60
7163;DHT22;3623;47.098;15.446;2023-04-03T12:23:32;16.40;93.30
7163;DHT22;3623;47.098;15.446;2023-04-03T12:26:06;16.50;93.10
7163;DHT22;3623;47.098;15.446;2023-04-03T12:28:45;15.70;92.20
7163;DHT22;3623;47.098;15.446;2023-04-03T12:31:14;16.50;92.00
7163;DHT22;3623;47.098;15.446;2023-04-03T12:33:59;15.30;91.60
7163;DHT22;3623;47.098;15.446;2023-04-03T12:36:34;13.70;92.40
7163;DHT22;3623;47.098;15.446;2023-04-03T12:39:24;12.00;92.00
7163;DHT22;3623;47.098;15.446;2023-04-03T12:41:58;10.70;92.70
7163;DHT22;3623;47.098;15.446;2023-04-03T12:44:40;11.70;93.70
7163;DHT22;3623;47.098;15.446;2023-04-03T12:47:24;14.30;93.80
7163;DHT22;3623;47.098;15.446;2023-04-03T12:49:53;14.50;91.80
7163;DHT22;3623;47.098;15.446;2023-04-03T12:52:30;13.70;91.90
7163;DHT22;3623;47.098;15.446;2023-04-03T12:55:00;14.60;92.50
7163;DHT22;3623;47.098;15.446;2023-04-03T12:57:30;14.20;92.30
7163;DHT22;3623;47.098;15.446;2023-04-03T12:59:58;13.80;92.30
7163;DHT22;3623;47.098;15.446;2023-04-03T13:02:27;13.10;91.70
7163;DHT22;3623;47.098;15.446;2023-04-03T13:04:57;13.40;93.20
7163;DHT22;3623;47.098;15.446;2023-04-03T13:07:28;14.30;93.10
7163;DHT22;3623;47.098;15.446;2023-04-03T13:10:17;14.40;92.60
7163;DHT22;3623;47.098;15.446;2023-04-03T13:12:49;13.10;92.30
7163;DHT22;3623;47.098;15.446;2023-04-03T13:15:19;11.90;92.30
7163;DHT22;3623;47.098;15.446;2023-04-03T13:17:46;11.10;93.10
7163;DHT22;3623;47.098;15.446;2023-04-03T13:20:20;11.10;93.20
7163;DHT22;3623;47.098;15.446;2023-04-03T13:22:53;12.20;93.80
7163;DHT22;3623;47.098;15.446;2023-04-03T13:25:25;13.10;93.80
7163;DHT22;3623;47.098;15.446;2023-04-03T13:27:54;14.40;91.60
7163;DHT22;3623;47.098;15.446;2023-04-03T13:30:27;14.70;92.50
7163;DHT22;3623;47.098;15.446;2023-04-03T13:32:56;13.40;92.50
7163;DHT22;3623;47.098;15.446;2023-04-03T13:35:35;12.10;92.70
7163;DHT22;3623;47.098;15.446;2023-04-03T13:38:06;11.40;93.60
7163;DHT22;3623;47.098;15.446;2023-04-03T13:40:47;10.80;94.00
7163;DHT22;3623;47.098;15.446;2023-04-03T13:43:19;10.70;94.60
7163;DHT22;3623;47.098;15.446;2023-04-03T13:46:01;10.60;94.80
7163;DHT22;3623;47.098;15.446;2023-04-03T13:48:38;11.10;95.30
7163;DHT22;3623;47.098;15.446;2023-04-03T13:51:17;10.70;93.70
7163;DHT22;3623;47.098;15.446;2023-04-03T13:53:47;10.60;94.50
7163;DHT22;3623;47.098;15.446;2023-04-03T13:56:24;10.60;94.00
7163;DHT22;3623;47.098;15.446;2023-04-03T13:58:59;10.70;94.00
7163;DHT22;3623;47.098;15.446;2023-04-03T14:01:35;10.70;94.20
7163;DHT22;3623;47.098;15.446;2023-04-03T14:04:12;10.60;94.10
7163;DHT22;3623;47.098;15.446;2023-04-03T14:06:40;10.50;94.70
7163;DHT22;3623;47.098;15.446;2023-04-03T14:09:07;10.20;93.10
7163;DHT22;3623;47.098;15.446;2023-04-03T14:11:36;9.90;93.90
7163;DHT22;3623;47.098;15.446;2023-04-03T14:14:09;10.00;94.60
7163;DHT22;3623;47.098;15.446;2023-04-03T14:16:40;10.50;94.40
7163;DHT22;3623;47.098;15.446;2023-04-03T14:19:17;11.20;94.40
7163;DHT22;3623;47.098;15.446;2023-04-03T14:21:46;11.50;93.10
7163;DHT22;3623;47.098;15.446;2023-04-03T14:24:13;11.70;92.90
7163;DHT22;3623;47.098;15.446;2023-04-03T14:26:43;11.80;92.60
7163;DHT22;3623;47.098;15.446;2023-04-03T14:29:11;12.10;92.60
7163;DHT22;3623;47.098;15.446;2023-04-03T14:31:39;12.10;93.10
7163;DHT22;3623;47.098;15.446;2023-04-03T14:34:06;12.40;92.30
7163;DHT22;3623;47.098;15.446;2023-04-03T14:36:34;12.40;92.30
7163;DHT22;3623;47.098;15.446;2023-04-03T14:39:04;11.50;92.10
7163;DHT22;3623;47.098;15.446;2023-04-03T14:41:32;12.20;91.80
7163;DHT22;3623;47.098;15.446;2023-04-03T14:44:01;11.50;92.30
7163;DHT22;3623;47.098;15.446;2023-04-03T14:46:30;11.80;92.90
7163;DHT22;3623;47.098;15.446;2023-04-03T14:48:58;12.70;93.30
7163;DHT22;3623;47.098;15.446;2023-04-03T14:51:25;13.20;91.80
7163;DHT22;3623;47.098;15.446;2023-04-03T14:53:53;12.80;91.40
7163;DHT22;3623;47.098;15.446;2023-04-03T14:56:23;13.00;92.30
7163;DHT22;3623;47.098;15.446;2023-04-03T14:58:55;12.70;91.90
7163;DHT22;3623;47.098;15.446;2023-04-03T15:01:24;12.00;92.00
7163;DHT22;3623;47.098;15.446;2023-04-03T15:03:51;12.30;91.60
7163;DHT22;3623;47.098;15.446;2023-04-03T15:06:18;12.40;91.60
7163;DHT22;3623;47.098;15.446;2023-04-03T15:08:47;12.40;91.80
7163;DHT22;3623;47.098;15.446;2023-04-03T15:11:14;11.90;90.90
7163;DHT22;3623;47.098;15.446;2023-04-03T15:13:42;11.70;91.30
7163;DHT22;3623;47.098;15.446;2023-04-03T15:16:14;11.30;91.70
7163;DHT22;3623;47.098;15.446;2023-04-03T15:18:44;11.20;92.10
7163;DHT22;3623;47.098;15.446;2023-04-03T15:21:11;11.40;92.70
7163;DHT22;3623;47.098;15.446;2023-04-03T15:23:38;11.50;92.60
7163;DHT22;3623;47.098;15.446;2023-04-03T15:26:06;11.40;91.80
7163;DHT22;3623;47.098;15.446;2023-04-03T15:28:35;11.10;91.90
7163;DHT22;3623;47.098;15.446;2023-04-03T15:31:03;10.90;91.40
7163;DHT22;3623;47.098;15.446;2023-04-03T15:33:31;11.00;92.20
7163;DHT22;3623;47.098;15.446;2023-04-03T15:36:00;10.80;92.30
7163;DHT22;3623;47.098;15.446;2023-04-03T15:38:27;10.60;91.90
7163;DHT22;3623;47.098;15.446;2023-04-03T15:40:54;10.90;92.50
7163;DHT22;3623;47.098;15.446;2023-04-03T15:43:22;10.20;92.40
7163;DHT22;3623;47.098;15.446;2023-04-03T15:45:50;10.10;92.60
7163;DHT22;3623;47.098;15.446;2023-04-03T15:48:17;9.90;93.10
7163;DHT22;3623;47.098;15.446;2023-04-03T15:50:45;9.50;93.20
7163;DHT22;3623;47.098;15.446;2023-04-03T15:53:13;9.70;93.00
7163;DHT22;3623;47.098;15.446;2023-04-03T15:55:40;9.10;93.30
7163;DHT22;3623;47.098;15.446;2023-04-03T15:58:07;8.90;93.40
7163;DHT22;3623;47.098;15.446;2023-04-03T16:00:35;8.80;94.10
7163;DHT22;3623;47.098;15.446;2023-04-03T16:03:08;8.50;94.50
7163;DHT22;3623;47.098;15.446;2023-04-03T16:05:37;8.40;94.20
7163;DHT22;3623;47.098;15.446;2023-04-03T16:08:05;8.30;94.70
7163;DHT22;3623;47.098;15.446;2023-04-03T16:10:35;8.00;94.50
7163;DHT22;3623;47.098;15.446;2023-04-03T16:13:03;8.10;95.20
7163;DHT22;3623;47.098;15.446;2023-04-03T16:15:30;8.10;95.00
7163;DHT22;3623;47.098;15.446;2023-04-03T16:17:58;8.10;95.30
7163;DHT22;3623;47.098;15.446;2023-04-03T16:20:26;8.20;95.00
7163;DHT22;3623;47.098;15.446;2023-04-03T16:22:54;8.30;95.20
7163;DHT22;3623;47.098;15.446;2023-04-03T16:25:23;8.10;94.50
7163;DHT22;3623;47.098;15.446;2023-04-03T16:27:51;8.10;95.20
7163;DHT22;3623;47.098;15.446;2023-04-03T16:30:18;7.90;95.10